sensor_id;sensor_type;location;lat;lon;timestamp;P1;durP1;ratioP1;P2;durP2;ratioP2
17631;SDS011;8934;51.194;17.150;2023-08-21T00:00:17;14.32;;;12.95;;
17631;SDS011;8934;51.194;17.150;2023-08-21T00:03:04;14.63;;;13.25;;
17631;SDS011;8934;51.194;17.150;2023-08-21T00:05:53;15.93;;;13.55;;
17631;SDS011;8934;51.194;17.150;2023-08-21T00:08:40;17.13;;;13.18;;
17631;SDS011;8934;51.194;17.150;2023-08-21T00:11:28;14.95;;;13.45;;
17631;SDS011;8934;51.194;17.150;2023-08-21T00:14:16;15.02;;;13.52;;
17631;SDS011;8934;51.194;17.150;2023-08-21T00:17:05;15.55;;;13.93;;
17631;SDS011;8934;51.194;17.150;2023-08-21T00:19:53;14.63;;;12.98;;
17631;SDS011;8934;51.194;17.150;2023-08-21T00:22:41;14.07;;;12.75;;
17631;SDS011;8934;51.194;17.150;2023-08-21T00:25:29;14.43;;;12.93;;
17631;SDS011;8934;51.194;17.150;2023-08-21T00:28:17;14.65;;;12.82;;
17631;SDS011;8934;51.194;17.150;2023-08-21T00:31:05;15.52;;;14.10;;
17631;SDS011;8934;51.194;17.150;2023-08-21T00:33:54;14.77;;;13.38;;
17631;SDS011;8934;51.194;17.150;2023-08-21T00:36:42;16.48;;;14.82;;
17631;SDS011;8934;51.194;17.150;2023-08-21T00:39:30;16.17;;;14.68;;
17631;SDS011;8934;51.194;17.150;2023-08-21T00:42:17;15.60;;;14.00;;
17631;SDS011;8934;51.194;17.150;2023-08-21T00:45:05;16.08;;;14.45;;
17631;SDS011;8934;51.194;17.150;2023-08-21T00:47:54;16.92;;;15.32;;
17631;SDS011;8934;51.194;17.150;2023-08-21T00:50:43;15.70;;;14.07;;
17631;SDS011;8934;51.194;17.150;2023-08-21T00:53:32;16.23;;;14.02;;
17631;SDS011;8934;51.194;17.150;2023-08-21T00:56:20;14.93;;;13.43;;
17631;SDS011;8934;51.194;17.150;2023-08-21T00:59:08;16.00;;;14.40;;
17631;SDS011;8934;51.194;17.150;2023-08-21T01:01:56;16.38;;;14.45;;
17631;SDS011;8934;51.194;17.150;2023-08-21T01:04:44;14.93;;;13.25;;
17631;SDS011;8934;51.194;17.150;2023-08-21T01:07:34;15.32;;;13.93;;
17631;SDS011;8934;51.194;17.150;2023-08-21T01:10:36;15.52;;;13.93;;
17631;SDS011;8934;51.194;17.150;2023-08-21T01:13:34;14.68;;;13.27;;
17631;SDS011;8934;51.194;17.150;2023-08-21T01:16:31;13.80;;;12.40;;
17631;SDS011;8934;51.194;17.150;2023-08-21T01:19:24;17.95;;;15.30;;
17631;SDS011;8934;51.194;17.150;2023-08-21T01:22:25;18.10;;;16.40;;
17631;SDS011;8934;51.194;17.150;2023-08-21T01:25:15;15.98;;;14.48;;
17631;SDS011;8934;51.194;17.150;2023-08-21T01:28:03;16.42;;;14.93;;
17631;SDS011;8934;51.194;17.150;2023-08-21T01:30:52;19.42;;;17.33;;
17631;SDS011;8934;51.194;17.150;2023-08-21T01:33:44;17.15;;;14.93;;
17631;SDS011;8934;51.194;17.150;2023-08-21T01:36:33;19.45;;;16.52;;
17631;SDS011;8934;51.194;17.150;2023-08-21T01:39:22;16.25;;;14.32;;
17631;SDS011;8934;51.194;17.150;2023-08-21T01:42:12;16.25;;;14.70;;
17631;SDS011;8934;51.194;17.150;2023-08-21T01:45:00;16.20;;;14.60;;
17631;SDS011;8934;51.194;17.150;2023-08-21T01:47:51;17.20;;;15.48;;
17631;SDS011;8934;51.194;17.150;2023-08-21T01:50:39;17.13;;;15.43;;
17631;SDS011;8934;51.194;17.150;2023-08-21T01:53:27;16.60;;;15.00;;
17631;SDS011;8934;51.194;17.150;2023-08-21T01:56:15;18.48;;;15.25;;
17631;SDS011;8934;51.194;17.150;2023-08-21T01:59:05;15.85;;;14.20;;
17631;SDS011;8934;51.194;17.150;2023-08-21T02:01:53;15.63;;;14.13;;
17631;SDS011;8934;51.194;17.150;2023-08-21T02:04:43;16.75;;;15.07;;
17631;SDS011;8934;51.194;17.150;2023-08-21T02:07:31;16.83;;;15.02;;
17631;SDS011;8934;51.194;17.150;2023-08-21T02:10:19;15.75;;;13.77;;
17631;SDS011;8934;51.194;17.150;2023-08-21T02:13:08;16.38;;;14.80;;
17631;SDS011;8934;51.194;17.150;2023-08-21T02:15:57;18.50;;;16.48;;
17631;SDS011;8934;51.194;17.150;2023-08-21T02:18:45;20.88;;;18.48;;
17631;SDS011;8934;51.194;17.150;2023-08-21T02:21:34;21.48;;;18.08;;
17631;SDS011;8934;51.194;17.150;2023-08-21T02:24:23;23.85;;;21.35;;
17631;SDS011;8934;51.194;17.150;2023-08-21T02:27:11;23.77;;;20.52;;
17631;SDS011;8934;51.194;17.150;2023-08-21T02:29:59;22.50;;;20.20;;
17631;SDS011;8934;51.194;17.150;2023-08-21T02:32:49;34.38;;;29.98;;
17631;SDS011;8934;51.194;17.150;2023-08-21T02:35:37;30.05;;;26.48;;
17631;SDS011;8934;51.194;17.150;2023-08-21T02:38:25;40.25;;;35.05;;
17631;SDS011;8934;51.194;17.150;2023-08-21T02:41:12;39.47;;;35.17;;
17631;SDS011;8934;51.194;17.150;2023-08-21T02:44:03;38.90;;;33.60;;
17631;SDS011;8934;51.194;17.150;2023-08-21T02:46:50;41.45;;;33.45;;
17631;SDS011;8934;51.194;17.150;2023-08-21T02:49:40;41.90;;;35.28;;
17631;SDS011;8934;51.194;17.150;2023-08-21T02:52:27;36.58;;;31.83;;
17631;SDS011;8934;51.194;17.150;2023-08-21T02:55:15;33.15;;;29.63;;
17631;SDS011;8934;51.194;17.150;2023-08-21T02:58:03;33.38;;;29.73;;
17631;SDS011;8934;51.194;17.150;2023-08-21T03:00:51;33.80;;;29.92;;
17631;SDS011;8934;51.194;17.150;2023-08-21T03:03:39;30.50;;;27.20;;
17631;SDS011;8934;51.194;17.150;2023-08-21T03:06:28;29.85;;;26.58;;
17631;SDS011;8934;51.194;17.150;2023-08-21T03:09:16;30.33;;;25.80;;
17631;SDS011;8934;51.194;17.150;2023-08-21T03:12:04;28.50;;;25.40;;
17631;SDS011;8934;51.194;17.150;2023-08-21T03:14:52;27.60;;;24.33;;
17631;SDS011;8934;51.194;17.150;2023-08-21T03:17:40;27.50;;;24.70;;
17631;SDS011;8934;51.194;17.150;2023-08-21T03:20:28;25.80;;;22.75;;
17631;SDS011;8934;51.194;17.150;2023-08-21T03:23:17;26.98;;;24.05;;
17631;SDS011;8934;51.194;17.150;2023-08-21T03:26:05;30.88;;;26.67;;
17631;SDS011;8934;51.194;17.150;2023-08-21T03:28:53;29.52;;;26.45;;
17631;SDS011;8934;51.194;17.150;2023-08-21T03:31:41;28.83;;;25.77;;
17631;SDS011;8934;51.194;17.150;2023-08-21T03:34:29;30.77;;;26.80;;
17631;SDS011;8934;51.194;17.150;2023-08-21T03:37:20;31.08;;;27.65;;
17631;SDS011;8934;51.194;17.150;2023-08-21T03:40:10;29.05;;;25.92;;
17631;SDS011;8934;51.194;17.150;2023-08-21T03:42:58;31.67;;;28.25;;
17631;SDS011;8934;51.194;17.150;2023-08-21T03:45:46;29.70;;;26.52;;
17631;SDS011;8934;51.194;17.150;2023-08-21T03:48:36;26.35;;;23.58;;
17631;SDS011;8934;51.194;17.150;2023-08-21T03:51:24;22.75;;;20.23;;
17631;SDS011;8934;51.194;17.150;2023-08-21T03:54:11;23.25;;;20.73;;
17631;SDS011;8934;51.194;17.150;2023-08-21T03:57:01;22.50;;;20.10;;
17631;SDS011;8934;51.194;17.150;2023-08-21T03:59:49;24.38;;;20.55;;
17631;SDS011;8934;51.194;17.150;2023-08-21T04:02:37;22.70;;;20.35;;
17631;SDS011;8934;51.194;17.150;2023-08-21T04:05:26;22.08;;;19.77;;
17631;SDS011;8934;51.194;17.150;2023-08-21T04:08:14;21.52;;;19.30;;
17631;SDS011;8934;51.194;17.150;2023-08-21T04:11:02;25.40;;;21.13;;
17631;SDS011;8934;51.194;17.150;2023-08-21T04:13:52;23.73;;;21.10;;
17631;SDS011;8934;51.194;17.150;2023-08-21T04:16:39;25.00;;;20.60;;
17631;SDS011;8934;51.194;17.150;2023-08-21T04:19:27;23.27;;;20.80;;
17631;SDS011;8934;51.194;17.150;2023-08-21T04:22:19;26.45;;;21.58;;
17631;SDS011;8934;51.194;17.150;2023-08-21T04:25:07;23.50;;;20.98;;
17631;SDS011;8934;51.194;17.150;2023-08-21T04:27:57;25.75;;;22.30;;
17631;SDS011;8934;51.194;17.150;2023-08-21T04:30:46;25.80;;;22.85;;
17631;SDS011;8934;51.194;17.150;2023-08-21T04:33:34;26.23;;;22.67;;
17631;SDS011;8934;51.194;17.150;2023-08-21T04:36:22;27.02;;;23.52;;
17631;SDS011;8934;51.194;17.150;2023-08-21T04:39:10;28.02;;;23.00;;
17631;SDS011;8934;51.194;17.150;2023-08-21T04:41:58;27.67;;;24.75;;
17631;SDS011;8934;51.194;17.150;2023-08-21T04:44:46;28.00;;;24.40;;
17631;SDS011;8934;51.194;17.150;2023-08-21T04:47:37;31.52;;;25.70;;
17631;SDS011;8934;51.194;17.150;2023-08-21T04:50:25;33.63;;;26.52;;
17631;SDS011;8934;51.194;17.150;2023-08-21T04:53:13;30.80;;;25.67;;
17631;SDS011;8934;51.194;17.150;2023-08-21T04:56:02;33.05;;;26.30;;
17631;SDS011;8934;51.194;17.150;2023-08-21T04:58:52;31.23;;;26.67;;
17631;SDS011;8934;51.194;17.150;2023-08-21T05:01:42;32.95;;;26.80;;
17631;SDS011;8934;51.194;17.150;2023-08-21T05:04:32;27.85;;;24.58;;
17631;SDS011;8934;51.194;17.150;2023-08-21T05:07:20;29.20;;;23.48;;
17631;SDS011;8934;51.194;17.150;2023-08-21T05:10:08;24.52;;;21.70;;
17631;SDS011;8934;51.194;17.150;2023-08-21T05:12:57;24.23;;;19.70;;
17631;SDS011;8934;51.194;17.150;2023-08-21T05:15:50;19.10;;;17.10;;
17631;SDS011;8934;51.194;17.150;2023-08-21T05:18:38;19.30;;;17.23;;
17631;SDS011;8934;51.194;17.150;2023-08-21T05:21:28;18.45;;;15.88;;
17631;SDS011;8934;51.194;17.150;2023-08-21T05:24:16;18.52;;;15.27;;
17631;SDS011;8934;51.194;17.150;2023-08-21T05:27:10;15.02;;;12.55;;
17631;SDS011;8934;51.194;17.150;2023-08-21T05:29:57;12.10;;;10.82;;
17631;SDS011;8934;51.194;17.150;2023-08-21T05:32:46;12.00;;;10.75;;
17631;SDS011;8934;51.194;17.150;2023-08-21T05:35:33;12.30;;;10.85;;
17631;SDS011;8934;51.194;17.150;2023-08-21T05:38:23;12.75;;;11.15;;
17631;SDS011;8934;51.194;17.150;2023-08-21T05:41:11;12.38;;;10.48;;
17631;SDS011;8934;51.194;17.150;2023-08-21T05:43:58;11.68;;;10.48;;
17631;SDS011;8934;51.194;17.150;2023-08-21T05:46:47;12.50;;;10.38;;
17631;SDS011;8934;51.194;17.150;2023-08-21T05:49:35;12.07;;;10.80;;
17631;SDS011;8934;51.194;17.150;2023-08-21T05:52:23;12.50;;;10.70;;
17631;SDS011;8934;51.194;17.150;2023-08-21T05:55:12;11.80;;;10.60;;
17631;SDS011;8934;51.194;17.150;2023-08-21T05:58:00;12.23;;;10.90;;
17631;SDS011;8934;51.194;17.150;2023-08-21T06:00:48;12.23;;;10.88;;
17631;SDS011;8934;51.194;17.150;2023-08-21T06:03:36;15.18;;;11.05;;
17631;SDS011;8934;51.194;17.150;2023-08-21T06:06:44;11.90;;;10.70;;
17631;SDS011;8934;51.194;17.150;2023-08-21T06:09:32;10.43;;;9.35;;
17631;SDS011;8934;51.194;17.150;2023-08-21T06:12:27;11.30;;;9.65;;
17631;SDS011;8934;51.194;17.150;2023-08-21T06:15:16;10.07;;;9.00;;
17631;SDS011;8934;51.194;17.150;2023-08-21T06:18:05;13.32;;;9.30;;
17631;SDS011;8934;51.194;17.150;2023-08-21T06:20:54;11.30;;;9.63;;
17631;SDS011;8934;51.194;17.150;2023-08-21T06:23:42;10.43;;;8.50;;
17631;SDS011;8934;51.194;17.150;2023-08-21T06:26:30;9.27;;;8.15;;
17631;SDS011;8934;51.194;17.150;2023-08-21T06:29:19;8.13;;;7.20;;
17631;SDS011;8934;51.194;17.150;2023-08-21T06:32:07;8.70;;;7.63;;
17631;SDS011;8934;51.194;17.150;2023-08-21T06:34:56;9.85;;;7.72;;
17631;SDS011;8934;51.194;17.150;2023-08-21T06:37:44;9.40;;;7.20;;
17631;SDS011;8934;51.194;17.150;2023-08-21T06:40:32;8.27;;;6.07;;
17631;SDS011;8934;51.194;17.150;2023-08-21T06:43:19;8.20;;;7.03;;
17631;SDS011;8934;51.194;17.150;2023-08-21T06:46:10;8.55;;;6.97;;
17631;SDS011;8934;51.194;17.150;2023-08-21T06:48:59;7.57;;;6.75;;
17631;SDS011;8934;51.194;17.150;2023-08-21T06:51:47;7.03;;;6.32;;
17631;SDS011;8934;51.194;17.150;2023-08-21T06:54:35;5.50;;;4.78;;
17631;SDS011;8934;51.194;17.150;2023-08-21T06:57:23;6.32;;;5.68;;
17631;SDS011;8934;51.194;17.150;2023-08-21T07:00:12;7.28;;;5.85;;
17631;SDS011;8934;51.194;17.150;2023-08-21T07:03:01;7.65;;;5.63;;
17631;SDS011;8934;51.194;17.150;2023-08-21T07:05:53;6.13;;;5.53;;
17631;SDS011;8934;51.194;17.150;2023-08-21T07:08:42;6.15;;;5.45;;
17631;SDS011;8934;51.194;17.150;2023-08-21T07:11:31;7.22;;;5.55;;
17631;SDS011;8934;51.194;17.150;2023-08-21T07:14:19;5.97;;;5.45;;
17631;SDS011;8934;51.194;17.150;2023-08-21T07:17:07;6.50;;;5.80;;
17631;SDS011;8934;51.194;17.150;2023-08-21T07:19:56;6.07;;;5.05;;
17631;SDS011;8934;51.194;17.150;2023-08-21T07:22:44;6.07;;;5.45;;
17631;SDS011;8934;51.194;17.150;2023-08-21T07:25:32;7.88;;;6.45;;
17631;SDS011;8934;51.194;17.150;2023-08-21T07:28:20;7.53;;;5.93;;
17631;SDS011;8934;51.194;17.150;2023-08-21T07:31:08;6.45;;;5.85;;
17631;SDS011;8934;51.194;17.150;2023-08-21T07:33:56;6.70;;;6.00;;
17631;SDS011;8934;51.194;17.150;2023-08-21T07:36:45;5.93;;;5.25;;
17631;SDS011;8934;51.194;17.150;2023-08-21T07:39:34;6.47;;;5.72;;
17631;SDS011;8934;51.194;17.150;2023-08-21T07:42:21;6.60;;;4.82;;
17631;SDS011;8934;51.194;17.150;2023-08-21T07:45:09;6.05;;;5.25;;
17631;SDS011;8934;51.194;17.150;2023-08-21T07:47:57;5.32;;;4.82;;
17631;SDS011;8934;51.194;17.150;2023-08-21T07:50:59;6.43;;;5.60;;
17631;SDS011;8934;51.194;17.150;2023-08-21T07:53:48;8.57;;;6.38;;
17631;SDS011;8934;51.194;17.150;2023-08-21T07:56:36;7.88;;;5.57;;
17631;SDS011;8934;51.194;17.150;2023-08-21T07:59:26;6.05;;;5.50;;
17631;SDS011;8934;51.194;17.150;2023-08-21T08:02:14;6.68;;;5.13;;
17631;SDS011;8934;51.194;17.150;2023-08-21T08:05:03;9.10;;;4.85;;
17631;SDS011;8934;51.194;17.150;2023-08-21T08:07:51;6.75;;;4.90;;
17631;SDS011;8934;51.194;17.150;2023-08-21T08:10:41;6.07;;;4.82;;
17631;SDS011;8934;51.194;17.150;2023-08-21T08:13:31;6.25;;;4.97;;
17631;SDS011;8934;51.194;17.150;2023-08-21T08:16:19;5.97;;;4.88;;
17631;SDS011;8934;51.194;17.150;2023-08-21T08:19:07;6.03;;;4.93;;
17631;SDS011;8934;51.194;17.150;2023-08-21T08:21:55;6.10;;;5.10;;
17631;SDS011;8934;51.194;17.150;2023-08-21T08:24:43;7.55;;;5.43;;
17631;SDS011;8934;51.194;17.150;2023-08-21T08:27:32;5.50;;;4.68;;
17631;SDS011;8934;51.194;17.150;2023-08-21T08:30:20;6.55;;;4.95;;
17631;SDS011;8934;51.194;17.150;2023-08-21T08:33:09;8.02;;;4.80;;
17631;SDS011;8934;51.194;17.150;2023-08-21T08:35:58;5.72;;;4.78;;
17631;SDS011;8934;51.194;17.150;2023-08-21T08:38:46;7.03;;;5.07;;
17631;SDS011;8934;51.194;17.150;2023-08-21T08:41:37;6.72;;;4.90;;
17631;SDS011;8934;51.194;17.150;2023-08-21T08:44:27;5.20;;;4.70;;
17631;SDS011;8934;51.194;17.150;2023-08-21T08:47:15;5.53;;;4.28;;
17631;SDS011;8934;51.194;17.150;2023-08-21T08:50:05;5.78;;;4.82;;
17631;SDS011;8934;51.194;17.150;2023-08-21T08:52:54;4.63;;;4.15;;
17631;SDS011;8934;51.194;17.150;2023-08-21T08:55:59;5.40;;;3.97;;
17631;SDS011;8934;51.194;17.150;2023-08-21T08:58:47;5.65;;;4.43;;
17631;SDS011;8934;51.194;17.150;2023-08-21T09:01:37;6.13;;;4.50;;
17631;SDS011;8934;51.194;17.150;2023-08-21T09:04:24;6.28;;;5.10;;
17631;SDS011;8934;51.194;17.150;2023-08-21T09:07:12;6.75;;;4.75;;
17631;SDS011;8934;51.194;17.150;2023-08-21T09:10:00;7.78;;;5.18;;
17631;SDS011;8934;51.194;17.150;2023-08-21T09:12:48;6.03;;;4.97;;
17631;SDS011;8934;51.194;17.150;2023-08-21T09:15:36;6.30;;;4.68;;
17631;SDS011;8934;51.194;17.150;2023-08-21T09:18:28;8.60;;;5.18;;
17631;SDS011;8934;51.194;17.150;2023-08-21T09:21:16;6.32;;;5.05;;
17631;SDS011;8934;51.194;17.150;2023-08-21T09:24:04;6.88;;;4.75;;
17631;SDS011;8934;51.194;17.150;2023-08-21T09:26:53;5.45;;;4.15;;
17631;SDS011;8934;51.194;17.150;2023-08-21T09:29:44;4.57;;;4.10;;
17631;SDS011;8934;51.194;17.150;2023-08-21T09:32:35;5.18;;;3.70;;
17631;SDS011;8934;51.194;17.150;2023-08-21T09:35:40;4.25;;;3.78;;
17631;SDS011;8934;51.194;17.150;2023-08-21T09:38:30;9.70;;;4.78;;
17631;SDS011;8934;51.194;17.150;2023-08-21T09:41:19;4.80;;;3.95;;
17631;SDS011;8934;51.194;17.150;2023-08-21T09:44:07;8.07;;;4.20;;
17631;SDS011;8934;51.194;17.150;2023-08-21T09:46:55;5.55;;;3.88;;
17631;SDS011;8934;51.194;17.150;2023-08-21T09:49:43;4.82;;;3.72;;
17631;SDS011;8934;51.194;17.150;2023-08-21T09:52:32;4.82;;;4.25;;
17631;SDS011;8934;51.194;17.150;2023-08-21T09:55:20;4.75;;;4.20;;
17631;SDS011;8934;51.194;17.150;2023-08-21T09:58:09;4.15;;;3.60;;
17631;SDS011;8934;51.194;17.150;2023-08-21T10:00:57;6.20;;;4.20;;
17631;SDS011;8934;51.194;17.150;2023-08-21T10:03:46;7.00;;;4.10;;
17631;SDS011;8934;51.194;17.150;2023-08-21T10:06:34;4.70;;;4.10;;
17631;SDS011;8934;51.194;17.150;2023-08-21T10:09:24;6.00;;;4.47;;
17631;SDS011;8934;51.194;17.150;2023-08-21T10:12:12;6.30;;;4.00;;
17631;SDS011;8934;51.194;17.150;2023-08-21T10:15:01;4.45;;;3.17;;
17631;SDS011;8934;51.194;17.150;2023-08-21T10:17:49;7.60;;;4.30;;
17631;SDS011;8934;51.194;17.150;2023-08-21T10:20:37;5.22;;;3.90;;
17631;SDS011;8934;51.194;17.150;2023-08-21T10:23:27;4.88;;;3.92;;
17631;SDS011;8934;51.194;17.150;2023-08-21T10:26:18;4.40;;;3.97;;
17631;SDS011;8934;51.194;17.150;2023-08-21T10:29:06;5.78;;;4.07;;
17631;SDS011;8934;51.194;17.150;2023-08-21T10:31:58;5.40;;;4.05;;
17631;SDS011;8934;51.194;17.150;2023-08-21T10:34:51;4.20;;;3.80;;
17631;SDS011;8934;51.194;17.150;2023-08-21T10:37:50;5.55;;;4.10;;
17631;SDS011;8934;51.194;17.150;2023-08-21T10:41:05;4.45;;;3.53;;
17631;SDS011;8934;51.194;17.150;2023-08-21T10:43:55;3.42;;;3.13;;
17631;SDS011;8934;51.194;17.150;2023-08-21T10:46:52;6.63;;;4.07;;
17631;SDS011;8934;51.194;17.150;2023-08-21T10:49:40;4.32;;;3.65;;
17631;SDS011;8934;51.194;17.150;2023-08-21T10:52:29;5.80;;;3.50;;
17631;SDS011;8934;51.194;17.150;2023-08-21T10:55:18;3.90;;;3.50;;
17631;SDS011;8934;51.194;17.150;2023-08-21T10:58:06;3.60;;;3.30;;
17631;SDS011;8934;51.194;17.150;2023-08-21T11:00:58;5.75;;;3.67;;
17631;SDS011;8934;51.194;17.150;2023-08-21T11:03:46;4.07;;;3.45;;
17631;SDS011;8934;51.194;17.150;2023-08-21T11:06:37;5.03;;;3.38;;
17631;SDS011;8934;51.194;17.150;2023-08-21T11:09:25;5.70;;;4.00;;
17631;SDS011;8934;51.194;17.150;2023-08-21T11:12:14;4.10;;;3.53;;
17631;SDS011;8934;51.194;17.150;2023-08-21T11:15:03;3.92;;;3.40;;
17631;SDS011;8934;51.194;17.150;2023-08-21T11:17:57;5.60;;;3.83;;
17631;SDS011;8934;51.194;17.150;2023-08-21T11:20:47;4.25;;;3.15;;
17631;SDS011;8934;51.194;17.150;2023-08-21T11:23:34;4.18;;;3.10;;
17631;SDS011;8934;51.194;17.150;2023-08-21T11:26:24;4.95;;;3.15;;
17631;SDS011;8934;51.194;17.150;2023-08-21T11:29:13;4.80;;;3.30;;
17631;SDS011;8934;51.194;17.150;2023-08-21T11:32:00;5.20;;;3.38;;
17631;SDS011;8934;51.194;17.150;2023-08-21T11:34:52;5.25;;;3.50;;
17631;SDS011;8934;51.194;17.150;2023-08-21T11:37:43;6.47;;;4.03;;
17631;SDS011;8934;51.194;17.150;2023-08-21T11:40:34;4.10;;;3.50;;
17631;SDS011;8934;51.194;17.150;2023-08-21T11:43:22;4.38;;;3.50;;
17631;SDS011;8934;51.194;17.150;2023-08-21T11:46:20;5.25;;;3.70;;
17631;SDS011;8934;51.194;17.150;2023-08-21T11:49:07;4.90;;;3.55;;
17631;SDS011;8934;51.194;17.150;2023-08-21T11:51:57;3.97;;;3.35;;
17631;SDS011;8934;51.194;17.150;2023-08-21T11:54:46;4.18;;;3.78;;
17631;SDS011;8934;51.194;17.150;2023-08-21T11:57:35;5.57;;;4.35;;
17631;SDS011;8934;51.194;17.150;2023-08-21T12:00:26;4.25;;;3.85;;
17631;SDS011;8934;51.194;17.150;2023-08-21T12:03:17;5.47;;;4.30;;
17631;SDS011;8934;51.194;17.150;2023-08-21T12:06:06;4.35;;;3.97;;
17631;SDS011;8934;51.194;17.150;2023-08-21T12:08:55;8.13;;;4.32;;
17631;SDS011;8934;51.194;17.150;2023-08-21T12:11:43;4.88;;;3.47;;
17631;SDS011;8934;51.194;17.150;2023-08-21T12:14:31;3.92;;;3.55;;
17631;SDS011;8934;51.194;17.150;2023-08-21T12:17:19;5.65;;;4.18;;
17631;SDS011;8934;51.194;17.150;2023-08-21T12:20:07;4.53;;;3.88;;
17631;SDS011;8934;51.194;17.150;2023-08-21T12:22:57;4.28;;;3.58;;
17631;SDS011;8934;51.194;17.150;2023-08-21T12:25:46;5.30;;;4.38;;
17631;SDS011;8934;51.194;17.150;2023-08-21T12:28:34;4.05;;;3.63;;
17631;SDS011;8934;51.194;17.150;2023-08-21T12:31:22;5.85;;;3.60;;
17631;SDS011;8934;51.194;17.150;2023-08-21T12:34:09;5.40;;;4.10;;
17631;SDS011;8934;51.194;17.150;2023-08-21T12:36:57;4.40;;;3.90;;
17631;SDS011;8934;51.194;17.150;2023-08-21T12:39:44;4.47;;;3.85;;
17631;SDS011;8934;51.194;17.150;2023-08-21T12:42:34;4.82;;;4.03;;
17631;SDS011;8934;51.194;17.150;2023-08-21T12:45:22;6.00;;;3.58;;
17631;SDS011;8934;51.194;17.150;2023-08-21T12:48:10;9.48;;;4.63;;
17631;SDS011;8934;51.194;17.150;2023-08-21T12:50:58;6.30;;;4.38;;
17631;SDS011;8934;51.194;17.150;2023-08-21T12:53:46;5.18;;;3.63;;
17631;SDS011;8934;51.194;17.150;2023-08-21T12:56:34;7.25;;;3.47;;
17631;SDS011;8934;51.194;17.150;2023-08-21T12:59:23;4.70;;;3.65;;
17631;SDS011;8934;51.194;17.150;2023-08-21T13:02:11;6.65;;;4.32;;
17631;SDS011;8934;51.194;17.150;2023-08-21T13:04:58;4.93;;;3.67;;
17631;SDS011;8934;51.194;17.150;2023-08-21T13:07:46;4.72;;;4.20;;
17631;SDS011;8934;51.194;17.150;2023-08-21T13:10:33;4.40;;;3.63;;
17631;SDS011;8934;51.194;17.150;2023-08-21T13:13:21;4.22;;;3.83;;
17631;SDS011;8934;51.194;17.150;2023-08-21T13:16:10;5.00;;;4.32;;
17631;SDS011;8934;51.194;17.150;2023-08-21T13:18:58;4.65;;;3.83;;
17631;SDS011;8934;51.194;17.150;2023-08-21T13:21:45;5.20;;;3.95;;
17631;SDS011;8934;51.194;17.150;2023-08-21T13:24:33;9.80;;;4.20;;
17631;SDS011;8934;51.194;17.150;2023-08-21T13:27:21;4.65;;;3.92;;
17631;SDS011;8934;51.194;17.150;2023-08-21T13:30:10;4.13;;;3.40;;
17631;SDS011;8934;51.194;17.150;2023-08-21T13:33:00;4.25;;;3.55;;
17631;SDS011;8934;51.194;17.150;2023-08-21T13:35:50;7.00;;;3.80;;
17631;SDS011;8934;51.194;17.150;2023-08-21T13:38:37;4.85;;;3.67;;
17631;SDS011;8934;51.194;17.150;2023-08-21T13:41:25;4.72;;;3.92;;
17631;SDS011;8934;51.194;17.150;2023-08-21T13:44:13;4.30;;;3.75;;
17631;SDS011;8934;51.194;17.150;2023-08-21T13:47:00;3.90;;;3.60;;
17631;SDS011;8934;51.194;17.150;2023-08-21T13:49:50;4.53;;;3.72;;
17631;SDS011;8934;51.194;17.150;2023-08-21T13:52:38;4.80;;;3.83;;
17631;SDS011;8934;51.194;17.150;2023-08-21T13:55:26;4.30;;;3.90;;
17631;SDS011;8934;51.194;17.150;2023-08-21T13:58:13;4.80;;;3.70;;
17631;SDS011;8934;51.194;17.150;2023-08-21T14:01:01;3.63;;;3.33;;
17631;SDS011;8934;51.194;17.150;2023-08-21T14:03:49;4.85;;;3.80;;
17631;SDS011;8934;51.194;17.150;2023-08-21T14:06:39;4.13;;;3.40;;
17631;SDS011;8934;51.194;17.150;2023-08-21T14:09:27;4.18;;;3.33;;
17631;SDS011;8934;51.194;17.150;2023-08-21T14:12:15;8.20;;;4.15;;
17631;SDS011;8934;51.194;17.150;2023-08-21T14:15:03;4.03;;;3.28;;
17631;SDS011;8934;51.194;17.150;2023-08-21T14:17:51;4.00;;;3.50;;
17631;SDS011;8934;51.194;17.150;2023-08-21T14:20:41;3.67;;;3.38;;
17631;SDS011;8934;51.194;17.150;2023-08-21T14:23:31;5.38;;;3.63;;
17631;SDS011;8934;51.194;17.150;2023-08-21T14:26:19;4.72;;;3.05;;
17631;SDS011;8934;51.194;17.150;2023-08-21T14:29:06;4.28;;;3.50;;
17631;SDS011;8934;51.194;17.150;2023-08-21T14:31:57;3.88;;;3.45;;
17631;SDS011;8934;51.194;17.150;2023-08-21T14:34:48;4.32;;;3.25;;
17631;SDS011;8934;51.194;17.150;2023-08-21T14:37:36;5.32;;;3.65;;
17631;SDS011;8934;51.194;17.150;2023-08-21T14:40:26;5.28;;;3.17;;
17631;SDS011;8934;51.194;17.150;2023-08-21T14:43:14;4.88;;;3.97;;
17631;SDS011;8934;51.194;17.150;2023-08-21T14:46:02;4.20;;;3.30;;
17631;SDS011;8934;51.194;17.150;2023-08-21T14:48:50;3.45;;;3.15;;
17631;SDS011;8934;51.194;17.150;2023-08-21T14:51:38;3.50;;;2.60;;
17631;SDS011;8934;51.194;17.150;2023-08-21T14:54:27;2.88;;;2.67;;
17631;SDS011;8934;51.194;17.150;2023-08-21T14:57:15;2.67;;;2.47;;
17631;SDS011;8934;51.194;17.150;2023-08-21T15:00:04;3.33;;;2.70;;
17631;SDS011;8934;51.194;17.150;2023-08-21T15:02:53;2.53;;;2.33;;
17631;SDS011;8934;51.194;17.150;2023-08-21T15:05:40;4.07;;;2.63;;
17631;SDS011;8934;51.194;17.150;2023-08-21T15:08:28;3.58;;;2.92;;
17631;SDS011;8934;51.194;17.150;2023-08-21T15:11:16;3.45;;;2.67;;
17631;SDS011;8934;51.194;17.150;2023-08-21T15:14:09;3.25;;;2.30;;
17631;SDS011;8934;51.194;17.150;2023-08-21T15:17:00;3.10;;;2.80;;
17631;SDS011;8934;51.194;17.150;2023-08-21T15:20:04;3.20;;;2.90;;
17631;SDS011;8934;51.194;17.150;2023-08-21T15:22:52;3.17;;;2.22;;
17631;SDS011;8934;51.194;17.150;2023-08-21T15:25:40;3.22;;;2.78;;
17631;SDS011;8934;51.194;17.150;2023-08-21T15:28:28;3.33;;;2.13;;
17631;SDS011;8934;51.194;17.150;2023-08-21T15:31:17;3.05;;;2.75;;
17631;SDS011;8934;51.194;17.150;2023-08-21T15:34:05;3.08;;;2.55;;
17631;SDS011;8934;51.194;17.150;2023-08-21T15:36:53;4.30;;;2.65;;
17631;SDS011;8934;51.194;17.150;2023-08-21T15:39:42;2.95;;;2.60;;
17631;SDS011;8934;51.194;17.150;2023-08-21T15:42:30;2.78;;;2.42;;
17631;SDS011;8934;51.194;17.150;2023-08-21T15:45:18;3.85;;;2.55;;
17631;SDS011;8934;51.194;17.150;2023-08-21T15:48:08;3.90;;;2.25;;
17631;SDS011;8934;51.194;17.150;2023-08-21T15:50:58;2.25;;;2.05;;
17631;SDS011;8934;51.194;17.150;2023-08-21T15:53:46;2.85;;;2.45;;
17631;SDS011;8934;51.194;17.150;2023-08-21T15:56:33;3.22;;;2.28;;
17631;SDS011;8934;51.194;17.150;2023-08-21T15:59:21;3.08;;;2.38;;
17631;SDS011;8934;51.194;17.150;2023-08-21T16:02:09;2.20;;;2.03;;
17631;SDS011;8934;51.194;17.150;2023-08-21T16:04:59;3.13;;;2.35;;
17631;SDS011;8934;51.194;17.150;2023-08-21T16:07:46;3.42;;;2.60;;
17631;SDS011;8934;51.194;17.150;2023-08-21T16:10:34;2.38;;;2.15;;
17631;SDS011;8934;51.194;17.150;2023-08-21T16:13:22;2.90;;;2.58;;
17631;SDS011;8934;51.194;17.150;2023-08-21T16:16:10;3.03;;;2.15;;
17631;SDS011;8934;51.194;17.150;2023-08-21T16:18:58;2.80;;;2.47;;
17631;SDS011;8934;51.194;17.150;2023-08-21T16:21:48;9.18;;;3.67;;
17631;SDS011;8934;51.194;17.150;2023-08-21T16:24:36;2.95;;;2.67;;
17631;SDS011;8934;51.194;17.150;2023-08-21T16:27:24;3.33;;;3.03;;
17631;SDS011;8934;51.194;17.150;2023-08-21T16:30:12;3.78;;;3.10;;
17631;SDS011;8934;51.194;17.150;2023-08-21T16:33:01;4.05;;;3.22;;
17631;SDS011;8934;51.194;17.150;2023-08-21T16:35:50;5.03;;;3.13;;
17631;SDS011;8934;51.194;17.150;2023-08-21T16:38:39;3.70;;;3.17;;
17631;SDS011;8934;51.194;17.150;2023-08-21T16:41:27;3.95;;;3.42;;
17631;SDS011;8934;51.194;17.150;2023-08-21T16:44:14;4.55;;;3.13;;
17631;SDS011;8934;51.194;17.150;2023-08-21T16:47:03;4.05;;;3.65;;